createdAt,value
2019-05-18T00:01:32.608Z,70.59
2019-05-18T00:04:58.204Z,70.86
2019-05-18T00:08:23.868Z,70.66
2019-05-18T00:11:49.473Z,70.24
2019-05-18T00:15:15.511Z,71.23
2019-05-18T00:18:41.112Z,71.87
2019-05-18T00:22:06.715Z,71.57
2019-05-18T00:25:32.313Z,71.17
2019-05-18T00:28:58.068Z,71.24
2019-05-18T00:32:23.743Z,71.65
2019-05-18T00:35:49.351Z,71.80
2019-05-18T00:39:14.952Z,71.18
2019-05-18T00:42:40.551Z,71.92
2019-05-18T00:46:06.627Z,72.34
2019-05-18T00:49:32.224Z,72.11
2019-05-18T00:52:57.821Z,72.16
2019-05-18T00:56:23.492Z,72.32
2019-05-18T00:59:49.097Z,72.15
2019-05-18T01:03:14.869Z,71.94
2019-05-18T01:06:40.809Z,71.56
2019-05-18T01:10:08.713Z,71.78
2019-05-18T01:13:34.323Z,71.24
2019-05-18T01:16:59.919Z,71.25
2019-05-18T01:20:25.544Z,70.98
2019-05-18T01:23:51.137Z,71.13
2019-05-18T01:27:16.815Z,71.11
2019-05-18T01:30:42.573Z,71.17
2019-05-18T01:34:08.168Z,71.52
2019-05-18T01:37:33.829Z,71.72
2019-05-18T01:40:59.433Z,71.31
2019-05-18T01:44:25.032Z,71.43
2019-05-18T01:47:50.816Z,71.78
2019-05-18T01:51:17.390Z,71.96
2019-05-18T01:54:43.177Z,72.14
2019-05-18T01:58:08.773Z,72.43
2019-05-18T02:01:34.382Z,72.51
2019-05-18T02:05:00.001Z,72.69
2019-05-18T02:08:25.590Z,72.97
2019-05-18T02:11:51.212Z,72.96
2019-05-18T02:15:16.929Z,72.97
2019-05-18T02:18:42.525Z,72.90
2019-05-18T02:22:08.149Z,73.26
2019-05-18T02:25:33.752Z,73.36
2019-05-18T02:28:59.472Z,73.22
2019-05-18T02:32:25.106Z,73.31
2019-05-18T02:35:50.677Z,73.53
2019-05-18T02:39:16.649Z,72.88
2019-05-18T02:42:42.249Z,73.20
2019-05-18T02:46:07.844Z,73.15
2019-05-18T02:49:33.458Z,73.25
2019-05-18T02:52:59.052Z,73.19
2019-05-18T02:56:24.930Z,73.56
2019-05-18T02:59:50.529Z,73.36
2019-05-18T03:03:17.206Z,73.48
2019-05-18T03:06:42.803Z,73.71
2019-05-18T03:10:09.423Z,73.90
2019-05-18T03:13:35.344Z,73.57
2019-05-18T03:17:01.106Z,74.14
2019-05-18T03:20:26.708Z,74.20
2019-05-18T03:23:52.509Z,74.34
2019-05-18T03:27:18.115Z,74.01
2019-05-18T03:30:43.721Z,73.76
2019-05-18T03:34:09.318Z,74.12
2019-05-18T03:37:34.923Z,74.45
2019-05-18T03:41:00.520Z,74.31
2019-05-18T03:44:26.133Z,75.01
2019-05-18T03:47:51.725Z,74.71
2019-05-18T03:51:17.624Z,75.34
2019-05-18T03:54:43.225Z,74.93
2019-05-18T03:58:08.854Z,75.54
2019-05-18T04:01:34.798Z,75.60
2019-05-18T04:05:00.407Z,75.54
2019-05-18T04:08:26.018Z,75.57
2019-05-18T04:11:51.643Z,75.48
2019-05-18T04:15:17.312Z,75.23
2019-05-18T04:18:42.916Z,75.56
2019-05-18T04:22:08.592Z,75.49
2019-05-18T04:25:34.203Z,75.34
2019-05-18T04:28:59.796Z,75.08
2019-05-18T04:32:25.398Z,75.21
2019-05-18T04:35:51.003Z,74.97
2019-05-18T04:39:16.602Z,74.66
2019-05-18T04:42:42.226Z,74.98
2019-05-18T04:46:07.835Z,75.51
2019-05-18T04:49:33.453Z,75.50
2019-05-18T04:52:59.047Z,75.24
2019-05-18T04:56:24.655Z,75.04
2019-05-18T04:59:50.252Z,74.93
2019-05-18T05:03:15.855Z,74.91
2019-05-18T05:06:41.517Z,74.49
2019-05-18T05:10:09.136Z,74.26
2019-05-18T05:13:34.736Z,74.08
2019-05-18T05:17:00.852Z,74.05
2019-05-18T05:20:26.448Z,73.77
2019-05-18T05:23:52.130Z,73.66
2019-05-18T05:27:17.726Z,73.34
2019-05-18T05:30:43.717Z,73.36
2019-05-18T05:34:09.317Z,73.12
2019-05-18T05:37:34.920Z,73.07
2019-05-18T05:41:03.286Z,72.53
2019-05-18T05:44:28.883Z,72.40
2019-05-18T05:47:54.494Z,72.05
2019-05-18T05:51:20.643Z,71.78
2019-05-18T05:54:46.250Z,71.84
2019-05-18T05:58:11.863Z,71.59
2019-05-18T06:01:37.466Z,71.52
2019-05-18T06:05:03.088Z,70.64
2019-05-18T06:08:28.680Z,71.32
2019-05-18T06:11:54.790Z,71.24
2019-05-18T06:15:20.520Z,71.21
2019-05-18T06:18:46.168Z,71.07
2019-05-18T06:22:11.761Z,70.58
2019-05-18T06:25:37.381Z,70.57
2019-05-18T06:29:02.984Z,69.72
2019-05-18T06:32:28.606Z,69.12
2019-05-18T06:35:54.306Z,68.51
2019-05-18T06:39:19.949Z,67.71
2019-05-18T06:42:45.556Z,67.26
2019-05-18T06:46:11.163Z,66.94
2019-05-18T06:49:36.772Z,66.52
2019-05-18T06:53:03.457Z,66.30
2019-05-18T06:56:29.666Z,66.04
2019-05-18T06:59:55.488Z,65.89
2019-05-18T07:03:21.230Z,66.08
2019-05-18T07:06:46.805Z,65.34
2019-05-18T07:10:13.703Z,65.89
2019-05-18T07:13:39.338Z,65.62
2019-05-18T07:17:04.939Z,63.82
2019-05-18T07:20:30.547Z,63.86
2019-05-18T07:23:56.143Z,63.26
2019-05-18T07:27:21.760Z,63.25
2019-05-18T07:30:47.366Z,62.29
2019-05-18T07:34:12.966Z,61.88
2019-05-18T07:37:38.570Z,61.29
2019-05-18T07:41:04.217Z,61.34
2019-05-18T07:44:30.584Z,60.12
2019-05-18T07:47:56.200Z,59.51
2019-05-18T07:51:36.274Z,59.09
2019-05-18T07:54:51.268Z,59.00
2019-05-18T07:58:16.865Z,58.89
2019-05-18T08:01:42.465Z,58.00
2019-05-18T08:05:08.975Z,58.84
2019-05-18T08:08:34.999Z,58.98
2019-05-18T08:12:00.604Z,59.71
2019-05-18T08:15:26.261Z,60.03
2019-05-18T08:18:51.859Z,60.21
2019-05-18T08:22:17.465Z,59.27
2019-05-18T08:25:43.063Z,58.43
2019-05-18T08:29:08.713Z,58.25
2019-05-18T08:32:34.308Z,57.24
2019-05-18T08:35:59.921Z,56.47
2019-05-18T08:39:25.519Z,55.51
2019-05-18T08:42:51.317Z,55.69
2019-05-18T08:46:17.885Z,54.90
2019-05-18T08:49:43.501Z,53.17
2019-05-18T08:53:09.084Z,53.24
2019-05-18T08:56:35.237Z,53.02
2019-05-18T09:00:00.837Z,52.52
2019-05-18T09:03:27.976Z,53.71
2019-05-18T09:06:53.568Z,53.21
2019-05-18T09:10:21.134Z,52.77
2019-05-18T09:13:46.736Z,52.83
2019-05-18T09:17:13.058Z,52.55
2019-05-18T09:20:38.732Z,51.93
2019-05-18T09:24:04.338Z,52.03
2019-05-18T09:27:29.941Z,51.45
2019-05-18T09:30:55.566Z,49.66
2019-05-18T09:34:21.177Z,48.42
2019-05-18T09:37:46.781Z,47.71
2019-05-18T09:41:12.386Z,46.54
2019-05-18T09:44:37.997Z,45.83
2019-05-18T09:48:03.646Z,45.23
2019-05-18T09:51:29.653Z,45.42
2019-05-18T09:54:55.222Z,44.44
2019-05-18T09:58:21.306Z,44.18
2019-05-18T10:01:46.908Z,43.48
2019-05-18T10:05:13.531Z,43.64
2019-05-18T10:08:39.207Z,43.41
2019-05-18T10:12:04.818Z,42.76
2019-05-18T10:15:30.414Z,44.32
2019-05-18T10:18:56.036Z,44.11
2019-05-18T10:22:21.642Z,43.39
2019-05-18T10:25:47.238Z,42.48
2019-05-18T10:29:12.840Z,42.64
2019-05-18T10:32:38.462Z,42.12
2019-05-18T10:36:04.202Z,41.94
2019-05-18T10:39:29.985Z,40.97
2019-05-18T10:42:55.581Z,40.27
2019-05-18T10:46:21.182Z,39.47
2019-05-18T10:49:46.795Z,39.26
2019-05-18T10:53:27.427Z,40.33
2019-05-18T10:56:39.742Z,40.62
2019-05-18T11:00:11.890Z,39.77
2019-05-18T11:03:37.627Z,39.40
2019-05-18T11:07:04.274Z,39.60
2019-05-18T11:10:30.246Z,39.76
2019-05-18T11:13:55.951Z,39.66
2019-05-18T11:17:21.555Z,38.40
2019-05-18T11:20:47.485Z,39.23
2019-05-18T11:24:13.380Z,39.39
2019-05-18T11:27:39.272Z,38.56
2019-05-18T11:31:04.880Z,38.58
2019-05-18T11:34:30.900Z,38.83
2019-05-18T11:37:56.493Z,37.95
2019-05-18T11:41:22.212Z,37.54
2019-05-18T11:44:47.796Z,37.44
2019-05-18T11:48:13.438Z,38.24
2019-05-18T11:51:39.037Z,37.33
2019-05-18T11:55:06.343Z,37.43
2019-05-18T11:58:31.948Z,37.78
2019-05-18T12:01:57.783Z,37.79
2019-05-18T12:05:25.036Z,36.54
2019-05-18T12:08:50.718Z,37.15
2019-05-18T12:12:17.043Z,37.34
2019-05-18T12:15:42.679Z,37.45
2019-05-18T12:19:08.282Z,36.59
2019-05-18T12:22:34.401Z,36.19
2019-05-18T12:26:00.002Z,35.82
2019-05-18T12:29:25.629Z,35.18
2019-05-18T12:32:51.409Z,34.50
2019-05-18T12:36:19.116Z,34.16
2019-05-18T12:39:44.726Z,32.83
2019-05-18T12:43:10.380Z,33.85
2019-05-18T12:46:36.160Z,33.45
2019-05-18T12:50:01.847Z,32.49
2019-05-18T12:53:27.446Z,31.74
2019-05-18T12:56:53.070Z,30.88
2019-05-18T13:00:21.061Z,29.82
2019-05-18T13:03:47.179Z,29.53
2019-05-18T13:07:12.789Z,29.66
2019-05-18T13:10:38.417Z,29.46
2019-05-18T13:14:04.260Z,30.06
2019-05-18T13:17:29.887Z,30.09
2019-05-18T13:20:57.513Z,29.41
2019-05-18T13:24:23.383Z,28.74
2019-05-18T13:27:48.977Z,28.90
2019-05-18T13:31:14.604Z,29.94
2019-05-18T13:34:40.208Z,29.42
2019-05-18T13:38:06.688Z,29.77
2019-05-18T13:41:32.313Z,31.82
2019-05-18T13:44:57.909Z,31.28
2019-05-18T13:48:23.517Z,30.64
2019-05-18T13:51:49.161Z,31.25
2019-05-18T13:55:15.189Z,29.58
2019-05-18T13:58:41.098Z,26.47
2019-05-18T14:02:06.919Z,25.57
2019-05-18T14:05:32.571Z,25.26
2019-05-18T14:08:58.234Z,25.51
2019-05-18T14:12:23.843Z,26.10
2019-05-18T14:15:49.460Z,25.52
2019-05-18T14:19:16.090Z,25.94
2019-05-18T14:22:41.699Z,26.67
2019-05-18T14:26:07.328Z,26.77
2019-05-18T14:29:32.926Z,28.74
2019-05-18T14:32:58.645Z,29.92
2019-05-18T14:36:24.252Z,30.05
2019-05-18T14:39:49.884Z,29.04
2019-05-18T14:43:15.492Z,28.93
2019-05-18T14:46:41.114Z,28.65
2019-05-18T14:50:07.614Z,27.95
2019-05-18T14:53:34.120Z,27.92
2019-05-18T14:56:59.718Z,28.52
2019-05-18T15:00:25.678Z,28.23
2019-05-18T15:03:51.282Z,28.26
2019-05-18T15:07:16.899Z,28.26
2019-05-18T15:10:42.502Z,28.12
2019-05-18T15:14:08.145Z,27.21
2019-05-18T15:17:33.746Z,27.10
2019-05-18T15:20:59.367Z,26.06
2019-05-18T15:24:24.973Z,24.68
2019-05-18T15:27:50.577Z,24.31
2019-05-18T15:31:16.335Z,24.48
2019-05-18T15:34:41.938Z,25.54
2019-05-18T15:38:08.004Z,25.48
2019-05-18T15:41:33.605Z,24.60
2019-05-18T15:44:59.256Z,24.15
2019-05-18T15:48:24.933Z,24.24
2019-05-18T15:51:50.994Z,24.58
2019-05-18T15:55:17.224Z,24.89
2019-05-18T15:58:42.844Z,25.28
2019-05-18T16:02:08.591Z,26.06
2019-05-18T16:05:34.166Z,28.07
2019-05-18T16:08:59.770Z,29.73
2019-05-18T16:12:25.444Z,30.21
2019-05-18T16:15:51.148Z,30.31
2019-05-18T16:19:16.767Z,30.62
2019-05-18T16:22:44.426Z,31.15
2019-05-18T16:26:21.181Z,31.50
2019-05-18T16:29:37.002Z,32.00
2019-05-18T16:33:02.681Z,32.20
2019-05-18T16:36:28.295Z,32.13
2019-05-18T16:39:54.002Z,32.44
2019-05-18T16:43:19.668Z,33.35
2019-05-18T16:46:45.292Z,33.75
2019-05-18T16:50:11.798Z,33.45
2019-05-18T16:53:37.440Z,33.65
2019-05-18T16:57:04.120Z,35.00
2019-05-18T17:00:29.902Z,35.71
2019-05-18T17:03:55.502Z,35.58
2019-05-18T17:07:21.139Z,36.78
2019-05-18T17:10:46.755Z,37.04
2019-05-18T17:14:12.381Z,37.28
2019-05-18T17:17:38.255Z,37.30
2019-05-18T17:21:04.058Z,36.94
2019-05-18T17:24:30.008Z,36.45
2019-05-18T17:27:56.068Z,36.91
2019-05-18T17:31:21.895Z,37.72
2019-05-18T17:34:47.532Z,37.57
2019-05-18T17:38:13.226Z,37.85
2019-05-18T17:41:38.831Z,38.06
2019-05-18T17:45:08.835Z,38.76
2019-05-18T17:48:34.458Z,39.58
2019-05-18T17:52:00.045Z,40.09
2019-05-18T17:55:25.688Z,40.80
2019-05-18T17:58:51.320Z,41.98
2019-05-18T18:02:17.022Z,42.83
2019-05-18T18:05:42.625Z,43.58
2019-05-18T18:09:09.715Z,44.61
2019-05-18T18:12:35.401Z,45.06
2019-05-18T18:16:01.080Z,45.37
2019-05-18T18:19:26.684Z,45.35
2019-05-18T18:22:52.371Z,45.28
2019-05-18T18:26:18.530Z,45.80
2019-05-18T18:29:44.152Z,45.55
2019-05-18T18:33:09.813Z,45.97
2019-05-18T18:36:35.695Z,46.56
2019-05-18T18:40:01.298Z,47.66
2019-05-18T18:43:27.050Z,48.18
2019-05-18T18:46:52.655Z,48.72
2019-05-18T18:50:18.440Z,48.81
2019-05-18T18:53:44.038Z,49.29
2019-05-18T18:57:10.972Z,50.44
2019-05-18T19:00:36.842Z,50.88
2019-05-18T19:04:02.461Z,51.29
2019-05-18T19:07:28.061Z,51.93
2019-05-18T19:10:53.675Z,52.08
2019-05-18T19:14:19.270Z,52.72
2019-05-18T19:17:44.957Z,53.98
2019-05-18T19:21:10.591Z,54.74
2019-05-18T19:24:36.188Z,55.26
2019-05-18T19:28:03.458Z,55.57
2019-05-18T19:31:29.117Z,55.04
2019-05-18T19:34:54.873Z,54.47
2019-05-18T19:38:20.487Z,54.33
2019-05-18T19:41:46.102Z,53.65
2019-05-18T19:45:12.524Z,53.11
2019-05-18T19:48:38.219Z,53.13
2019-05-18T19:52:03.872Z,53.17
2019-05-18T19:55:29.465Z,53.67
2019-05-18T19:58:55.138Z,53.94
2019-05-18T20:02:20.809Z,54.12
2019-05-18T20:05:46.371Z,54.24
2019-05-18T20:09:11.992Z,54.32
2019-05-18T20:12:37.641Z,54.63
2019-05-18T20:16:03.350Z,54.56
2019-05-18T20:19:38.741Z,54.96
2019-05-18T20:22:56.657Z,54.09
2019-05-18T20:26:22.291Z,54.01
2019-05-18T20:29:47.906Z,54.07
2019-05-18T20:33:13.503Z,54.49
2019-05-18T20:36:39.132Z,54.65
2019-05-18T20:40:08.876Z,54.93
2019-05-18T20:43:34.735Z,55.33
2019-05-18T20:47:00.342Z,55.60
2019-05-18T20:50:25.970Z,56.09
2019-05-18T20:53:51.567Z,56.58
2019-05-18T20:57:17.194Z,57.31
2019-05-18T21:00:42.874Z,57.80
2019-05-18T21:04:09.012Z,57.67
2019-05-18T21:07:35.366Z,58.13
2019-05-18T21:11:00.991Z,58.77
2019-05-18T21:14:26.605Z,59.36
2019-05-18T21:17:52.205Z,59.65
2019-05-18T21:21:17.834Z,59.59
2019-05-18T21:24:43.461Z,60.05
2019-05-18T21:28:09.064Z,59.91
2019-05-18T21:31:34.857Z,60.42
2019-05-18T21:35:00.649Z,60.87
2019-05-18T21:38:26.262Z,60.65
2019-05-18T21:41:51.933Z,60.96
2019-05-18T21:45:18.785Z,61.28
2019-05-18T21:48:44.390Z,61.64
2019-05-18T21:52:10.025Z,61.58
2019-05-18T21:55:36.382Z,61.78
2019-05-18T21:59:11.239Z,62.15
2019-05-18T22:02:30.390Z,62.29
2019-05-18T22:05:57.303Z,62.48
2019-05-18T22:09:22.902Z,62.48
2019-05-18T22:12:48.520Z,62.51
2019-05-18T22:16:14.802Z,62.23
2019-05-18T22:19:40.411Z,61.99
2019-05-18T22:23:06.316Z,62.27
2019-05-18T22:26:31.926Z,62.75
2019-05-18T22:29:57.536Z,62.61
2019-05-18T22:33:23.175Z,62.25
2019-05-18T22:36:48.774Z,62.46
2019-05-18T22:40:14.531Z,62.51
2019-05-18T22:43:40.130Z,62.75
2019-05-18T22:47:05.732Z,62.67
2019-05-18T22:50:31.395Z,62.84
2019-05-18T22:53:57.415Z,62.47
2019-05-18T22:57:23.014Z,62.95
2019-05-18T23:00:48.629Z,63.54
2019-05-18T23:04:14.226Z,63.69
2019-05-18T23:07:39.847Z,63.91
2019-05-18T23:11:05.441Z,64.03
2019-05-18T23:14:31.042Z,63.88
2019-05-18T23:17:56.729Z,64.02
2019-05-18T23:21:22.362Z,64.03
2019-05-18T23:24:48.031Z,63.67
2019-05-18T23:28:13.915Z,63.61
2019-05-18T23:31:39.859Z,63.82
2019-05-18T23:35:06.839Z,64.17
2019-05-18T23:38:32.451Z,64.16
2019-05-18T23:41:58.118Z,64.12
2019-05-18T23:45:23.726Z,64.62
2019-05-18T23:48:49.348Z,64.93
2019-05-18T23:52:14.947Z,65.28
2019-05-18T23:55:40.646Z,65.45
2019-05-18T23:59:06.495Z,65.75
